Sao Pedro do Piaui, Brazil
Current Conditions -  °F | °C
As of 2:00 AM on Tuesday 21 Oct 2014 (Local Time) from SBTE Reporting Station
Scattered Clouds Scattered Clouds  
Wind Chill: 82°   Ceiling: Unl
Heat Index: 88°   Visibility: 6mi
Dew Point: 73°   Wind: 6mph
Humidity: 74%   Direction: 300°WNW
Pressure: 29.8"   Gusts: NA
Location:  5.93°S, 42.72°W
Report Text: SBTE 210500Z 30005KT 9999 SCT030 SCT100 28/23 Q1009
Loading
Personal Weather Stations






























Interactive Weather Map
Tropical Storm Tracking
New forecast layout! Learn more

10-Day Weather Forecast

Advertisements
Track Severe Weather on mobile